createdAt,value
2022-11-15T00:00:57.164Z,9.20
2022-11-15T00:03:28.620Z,9.20
2022-11-15T00:05:55.587Z,9.20
2022-11-15T00:08:22.394Z,9.30
2022-11-15T00:11:00.304Z,9.30
2022-11-15T00:13:27.439Z,9.30
2022-11-15T00:15:57.277Z,9.30
2022-11-15T00:18:23.959Z,9.40
2022-11-15T00:20:53.668Z,9.30
2022-11-15T00:23:20.657Z,9.40
2022-11-15T00:25:47.419Z,9.40
2022-11-15T00:28:14.145Z,9.30
2022-11-15T00:30:40.826Z,9.30
2022-11-15T00:33:07.894Z,9.30
2022-11-15T00:35:35.448Z,9.30
2022-11-15T00:38:03.498Z,9.30
2022-11-15T00:40:30.623Z,9.40
2022-11-15T00:42:57.609Z,9.40
2022-11-15T00:45:25.000Z,9.40
2022-11-15T00:47:52.415Z,9.40
2022-11-15T00:50:19.663Z,9.40
2022-11-15T00:52:46.586Z,9.40
2022-11-15T00:55:18.513Z,9.40
2022-11-15T00:57:45.385Z,9.40
2022-11-15T01:00:12.867Z,9.40
2022-11-15T01:02:39.935Z,9.40
2022-11-15T01:05:07.358Z,9.40
2022-11-15T01:07:34.395Z,9.40
2022-11-15T01:10:01.320Z,9.30
2022-11-15T01:12:28.464Z,9.40
2022-11-15T01:14:55.549Z,9.30
2022-11-15T01:17:22.304Z,9.30
2022-11-15T01:19:49.297Z,9.30
2022-11-15T01:22:16.172Z,9.40
2022-11-15T01:24:42.995Z,9.30
2022-11-15T01:27:10.059Z,9.30
2022-11-15T01:29:36.863Z,9.30
2022-11-15T01:32:03.655Z,9.30
2022-11-15T01:34:30.416Z,9.40
2022-11-15T01:36:57.110Z,9.40
2022-11-15T01:39:23.872Z,9.40
2022-11-15T01:41:50.663Z,9.40
2022-11-15T01:44:35.465Z,9.40
2022-11-15T01:47:05.152Z,9.50
2022-11-15T01:49:34.703Z,9.50
2022-11-15T01:52:03.532Z,9.50
2022-11-15T01:54:30.770Z,9.50
2022-11-15T01:57:02.753Z,9.50
2022-11-15T01:59:29.931Z,9.40
2022-11-15T02:01:56.960Z,9.50
2022-11-15T02:04:42.584Z,9.50
2022-11-15T02:07:13.319Z,9.50
2022-11-15T02:09:40.866Z,9.60
2022-11-15T02:12:09.993Z,9.60
2022-11-15T02:14:39.217Z,9.60
2022-11-15T02:17:27.194Z,9.60
2022-11-15T02:20:25.543Z,9.60
2022-11-15T02:23:31.273Z,9.60
2022-11-15T02:26:08.504Z,9.60
2022-11-15T02:29:11.232Z,9.60
2022-11-15T02:31:54.570Z,9.60
2022-11-15T02:34:52.871Z,9.60
2022-11-15T02:37:40.268Z,9.60
2022-11-15T02:40:28.640Z,9.60
2022-11-15T02:43:19.849Z,9.60
2022-11-15T02:45:52.432Z,9.60
2022-11-15T02:48:20.016Z,9.60
2022-11-15T02:50:48.010Z,9.60
2022-11-15T02:53:16.153Z,9.60
2022-11-15T02:55:49.011Z,9.60
2022-11-15T02:58:39.876Z,9.60
2022-11-15T03:01:09.427Z,9.60
2022-11-15T03:04:11.185Z,9.70
2022-11-15T03:06:57.138Z,9.60
2022-11-15T03:09:39.294Z,9.70
2022-11-15T03:12:18.840Z,9.60
2022-11-15T03:15:01.452Z,9.70
2022-11-15T03:17:39.154Z,9.70
2022-11-15T03:20:08.489Z,9.80
2022-11-15T03:22:38.672Z,9.80
2022-11-15T03:25:09.001Z,9.80
2022-11-15T03:27:41.138Z,9.80
2022-11-15T03:30:09.536Z,9.80
2022-11-15T03:32:42.861Z,9.80
2022-11-15T03:35:15.092Z,9.80
2022-11-15T03:38:12.348Z,9.80
2022-11-15T03:40:42.194Z,9.80
2022-11-15T03:43:43.915Z,9.80
2022-11-15T03:46:35.238Z,9.80
2022-11-15T03:49:18.211Z,9.80
2022-11-15T03:51:44.978Z,9.70
2022-11-15T03:54:13.274Z,9.80
2022-11-15T03:56:39.941Z,9.80
2022-11-15T03:59:06.563Z,9.80
2022-11-15T04:01:36.753Z,9.70
2022-11-15T04:04:03.446Z,9.70
2022-11-15T04:06:30.090Z,9.70
2022-11-15T04:08:56.726Z,9.80
2022-11-15T04:11:23.371Z,9.80
2022-11-15T04:13:49.981Z,9.80
2022-11-15T04:16:16.633Z,9.80
2022-11-15T04:18:43.269Z,9.80
2022-11-15T04:21:29.002Z,9.80
2022-11-15T04:23:55.733Z,9.80
2022-11-15T04:26:24.027Z,9.80
2022-11-15T04:29:09.118Z,9.90
2022-11-15T04:31:36.069Z,9.90
2022-11-15T04:34:02.750Z,9.90
2022-11-15T04:36:48.354Z,9.90
2022-11-15T04:39:15.031Z,9.90
2022-11-15T04:41:41.736Z,9.90
2022-11-15T04:44:08.507Z,9.90
2022-11-15T04:46:35.174Z,9.90
2022-11-15T04:49:01.869Z,9.90
2022-11-15T04:51:28.578Z,9.80
2022-11-15T04:53:55.240Z,9.90
2022-11-15T04:56:21.888Z,9.90
2022-11-15T04:58:51.746Z,9.90
2022-11-15T05:01:18.702Z,9.90
2022-11-15T05:04:04.733Z,9.80
2022-11-15T05:06:31.417Z,9.80
2022-11-15T05:08:58.372Z,9.80
2022-11-15T05:11:25.429Z,9.80
2022-11-15T05:13:52.150Z,9.80
2022-11-15T05:16:18.870Z,9.80
2022-11-15T05:18:45.566Z,9.70
2022-11-15T05:21:14.752Z,9.70
2022-11-15T05:23:42.190Z,9.80
2022-11-15T05:26:09.866Z,9.80
2022-11-15T05:28:37.540Z,9.80
2022-11-15T05:31:09.440Z,9.80
2022-11-15T05:33:38.461Z,9.80
2022-11-15T05:36:15.198Z,9.80
2022-11-15T05:38:42.770Z,9.80
2022-11-15T05:41:10.042Z,9.80
2022-11-15T05:43:39.804Z,9.80
2022-11-15T05:46:06.998Z,9.80
2022-11-15T05:48:36.639Z,9.80
2022-11-15T05:51:05.767Z,9.80
2022-11-15T05:53:33.127Z,9.90
2022-11-15T05:56:00.526Z,9.90
2022-11-15T05:58:27.301Z,9.90
2022-11-15T06:00:55.649Z,9.90
2022-11-15T06:03:22.308Z,9.90
2022-11-15T06:05:48.936Z,9.90
2022-11-15T06:08:15.624Z,9.90
2022-11-15T06:10:42.325Z,9.80
2022-11-15T06:13:09.022Z,9.90
2022-11-15T06:15:35.921Z,9.90
2022-11-15T06:18:02.590Z,9.90
2022-11-15T06:20:30.561Z,9.90
2022-11-15T06:23:02.060Z,9.90
2022-11-15T06:25:29.897Z,9.90
2022-11-15T06:27:58.514Z,9.90
2022-11-15T06:30:27.363Z,9.90
2022-11-15T06:33:00.886Z,9.90
2022-11-15T06:35:27.869Z,9.90
2022-11-15T06:37:54.638Z,10.00
2022-11-15T06:40:21.367Z,9.90
2022-11-15T06:42:48.135Z,9.90
2022-11-15T06:45:14.872Z,9.90
2022-11-15T06:47:47.952Z,9.90
2022-11-15T06:50:14.930Z,9.90
2022-11-15T06:52:41.586Z,9.90
2022-11-15T06:55:09.336Z,9.90
2022-11-15T06:57:37.043Z,9.90
2022-11-15T07:00:07.419Z,9.90
2022-11-15T07:02:34.083Z,10.00
2022-11-15T07:05:00.756Z,10.00
2022-11-15T07:07:27.544Z,10.00
2022-11-15T07:09:54.379Z,9.90
2022-11-15T07:12:21.072Z,9.90
2022-11-15T07:14:47.712Z,10.00
2022-11-15T07:17:14.517Z,10.00
2022-11-15T07:19:41.238Z,10.00
2022-11-15T07:22:08.007Z,10.00
2022-11-15T07:24:34.751Z,10.00
2022-11-15T07:27:01.461Z,10.00
2022-11-15T07:29:28.318Z,10.00
2022-11-15T07:31:55.287Z,10.00
2022-11-15T07:34:22.241Z,10.00
2022-11-15T07:36:48.943Z,10.00
2022-11-15T07:39:15.757Z,10.00
2022-11-15T07:41:42.507Z,10.00
2022-11-15T07:44:09.191Z,10.00
2022-11-15T07:46:35.870Z,10.00
2022-11-15T07:49:02.582Z,10.00
2022-11-15T07:51:29.380Z,10.00
2022-11-15T07:53:56.106Z,10.00
2022-11-15T07:56:23.079Z,10.10
2022-11-15T07:58:51.240Z,10.10
2022-11-15T08:01:18.049Z,10.10
2022-11-15T08:03:44.839Z,10.10
2022-11-15T08:06:11.533Z,10.10
2022-11-15T08:08:38.318Z,10.20
2022-11-15T08:11:05.135Z,10.20
2022-11-15T08:13:32.322Z,10.20
2022-11-15T08:16:06.638Z,10.20
2022-11-15T08:18:33.517Z,10.20
2022-11-15T08:21:01.948Z,10.20
2022-11-15T08:23:29.072Z,10.30
2022-11-15T08:26:02.029Z,10.20
2022-11-15T08:28:30.459Z,10.30
2022-11-15T08:30:57.197Z,10.30
2022-11-15T08:33:24.321Z,10.40
2022-11-15T08:35:50.965Z,10.40
2022-11-15T08:38:17.690Z,10.30
2022-11-15T08:40:44.343Z,10.40
2022-11-15T08:43:10.991Z,10.40
2022-11-15T08:45:37.697Z,10.40
2022-11-15T08:48:05.005Z,10.50
2022-11-15T08:50:31.938Z,10.50
2022-11-15T08:52:58.903Z,10.50
2022-11-15T08:55:25.531Z,10.60
2022-11-15T08:57:52.298Z,10.60
2022-11-15T09:00:20.850Z,10.60
2022-11-15T09:02:47.605Z,10.70
2022-11-15T09:05:14.301Z,10.70
2022-11-15T09:07:41.002Z,10.70
2022-11-15T09:10:08.082Z,10.80
2022-11-15T09:12:34.980Z,10.70
2022-11-15T09:15:01.731Z,10.80
2022-11-15T09:17:28.409Z,10.80
2022-11-15T09:19:55.086Z,10.90
2022-11-15T09:22:22.028Z,10.90
2022-11-15T09:24:48.674Z,10.90
2022-11-15T09:27:15.472Z,11.00
2022-11-15T09:29:42.120Z,10.90
2022-11-15T09:32:08.827Z,10.90
2022-11-15T09:34:35.479Z,10.90
2022-11-15T09:37:02.148Z,11.00
2022-11-15T09:39:28.773Z,11.00
2022-11-15T09:42:06.999Z,11.00
2022-11-15T09:44:44.710Z,11.00
2022-11-15T09:47:43.257Z,10.90
2022-11-15T09:50:16.008Z,11.00
2022-11-15T09:52:46.175Z,11.00
2022-11-15T09:55:17.244Z,11.10
2022-11-15T09:57:55.458Z,11.10
2022-11-15T10:00:46.337Z,11.10
2022-11-15T10:03:28.653Z,11.10
2022-11-15T10:06:00.059Z,11.00
2022-11-15T10:08:55.630Z,11.10
2022-11-15T10:11:38.217Z,11.00
2022-11-15T10:14:27.382Z,11.20
2022-11-15T10:17:19.350Z,11.30
2022-11-15T10:20:05.937Z,11.30
2022-11-15T10:22:47.926Z,11.30
2022-11-15T10:25:17.405Z,11.40
2022-11-15T10:27:46.547Z,11.40
2022-11-15T10:30:17.299Z,11.40
2022-11-15T10:32:46.100Z,11.40
2022-11-15T10:35:30.591Z,11.40
2022-11-15T10:38:26.758Z,11.50
2022-11-15T10:41:08.611Z,11.50
2022-11-15T10:43:35.267Z,11.50
2022-11-15T10:46:45.072Z,11.60
2022-11-15T10:49:30.262Z,11.60
2022-11-15T10:52:18.135Z,11.70
2022-11-15T10:54:49.336Z,11.80
2022-11-15T10:57:19.491Z,11.80
2022-11-15T11:00:08.058Z,11.80
2022-11-15T11:02:56.545Z,11.90
2022-11-15T11:05:43.097Z,12.00
2022-11-15T11:08:12.889Z,12.00
2022-11-15T11:11:01.332Z,11.90
2022-11-15T11:13:34.134Z,11.90
2022-11-15T11:16:15.565Z,12.00
2022-11-15T11:18:51.338Z,12.00
2022-11-15T11:21:35.490Z,12.00
2022-11-15T11:24:18.498Z,12.00
2022-11-15T11:26:57.133Z,12.00
2022-11-15T11:29:33.070Z,12.00
2022-11-15T11:32:14.499Z,12.00
2022-11-15T11:34:59.679Z,12.00
2022-11-15T11:37:53.814Z,12.10
2022-11-15T11:40:31.984Z,12.00
2022-11-15T11:43:26.507Z,12.00
2022-11-15T11:46:20.808Z,12.00
2022-11-15T11:48:57.271Z,12.10
2022-11-15T11:52:04.561Z,12.10
2022-11-15T11:54:54.928Z,12.10
2022-11-15T11:57:34.473Z,12.10
2022-11-15T12:00:29.324Z,12.10
2022-11-15T12:03:30.165Z,12.30
2022-11-15T12:06:22.900Z,12.20
2022-11-15T12:09:34.030Z,12.20
2022-11-15T12:12:32.835Z,12.30
2022-11-15T12:15:15.042Z,12.30
2022-11-15T12:17:42.964Z,12.40
2022-11-15T12:20:22.759Z,12.30
2022-11-15T12:22:55.292Z,12.40
2022-11-15T12:25:36.182Z,12.40
2022-11-15T12:28:30.506Z,12.40
2022-11-15T12:31:13.745Z,12.40
2022-11-15T12:33:45.708Z,12.40
2022-11-15T12:36:21.437Z,12.40
2022-11-15T12:38:59.565Z,12.50
2022-11-15T12:41:40.974Z,12.50
2022-11-15T12:44:34.711Z,12.50
2022-11-15T12:47:10.595Z,12.60
2022-11-15T12:49:37.279Z,12.60
2022-11-15T12:52:05.204Z,12.70
2022-11-15T12:54:37.786Z,12.70
2022-11-15T12:57:04.476Z,12.70
2022-11-15T13:00:02.724Z,12.70
2022-11-15T13:02:34.685Z,12.70
2022-11-15T13:05:16.854Z,12.80
2022-11-15T13:07:43.726Z,12.70
2022-11-15T13:10:13.439Z,12.80
2022-11-15T13:12:45.789Z,12.80
2022-11-15T13:15:18.264Z,12.80
2022-11-15T13:17:48.779Z,12.70
2022-11-15T13:20:15.756Z,12.80
2022-11-15T13:22:53.372Z,12.80
2022-11-15T13:25:48.956Z,12.80
2022-11-15T13:28:15.599Z,12.80
2022-11-15T13:30:57.442Z,12.80
2022-11-15T13:33:36.380Z,12.80
2022-11-15T13:36:24.185Z,12.80
2022-11-15T13:39:13.836Z,12.90
2022-11-15T13:41:50.280Z,12.80
2022-11-15T13:44:32.303Z,12.80
2022-11-15T13:47:16.735Z,12.80
2022-11-15T13:49:43.681Z,12.80
2022-11-15T13:52:15.511Z,12.70
2022-11-15T13:54:46.938Z,12.70
2022-11-15T13:57:30.247Z,12.70
2022-11-15T14:00:01.781Z,12.70
2022-11-15T14:02:33.579Z,12.60
2022-11-15T14:05:16.499Z,12.60
2022-11-15T14:07:54.932Z,12.60
2022-11-15T14:10:31.758Z,12.50
2022-11-15T14:12:59.690Z,12.60
2022-11-15T14:15:33.311Z,12.50
2022-11-15T14:18:00.992Z,12.50
2022-11-15T14:20:29.444Z,12.50
2022-11-15T14:22:58.654Z,12.40
2022-11-15T14:25:28.063Z,12.40
2022-11-15T14:28:16.023Z,12.40
2022-11-15T14:30:48.068Z,12.40
2022-11-15T14:33:31.547Z,12.40
2022-11-15T14:36:03.244Z,12.50
2022-11-15T14:38:30.902Z,12.50
2022-11-15T14:40:58.174Z,12.50
2022-11-15T14:43:25.249Z,12.50
2022-11-15T14:45:51.970Z,12.50
2022-11-15T14:48:18.604Z,12.40
2022-11-15T14:50:45.518Z,12.40
2022-11-15T14:53:19.753Z,12.40
2022-11-15T14:55:46.396Z,12.40
2022-11-15T14:58:13.080Z,12.40
2022-11-15T15:00:41.614Z,12.40
2022-11-15T15:03:08.341Z,12.40
2022-11-15T15:05:41.628Z,12.40
2022-11-15T15:08:09.001Z,12.40
2022-11-15T15:10:44.879Z,12.30
2022-11-15T15:13:23.214Z,12.40
2022-11-15T15:15:51.573Z,12.40
2022-11-15T15:18:19.092Z,12.30
2022-11-15T15:20:55.284Z,12.30
2022-11-15T15:23:21.980Z,12.30
2022-11-15T15:25:49.968Z,12.30
2022-11-15T15:28:17.018Z,12.30
2022-11-15T15:30:43.748Z,12.30
2022-11-15T15:33:10.375Z,12.20
2022-11-15T15:35:37.107Z,12.20
2022-11-15T15:38:04.387Z,12.20
2022-11-15T15:40:33.211Z,12.20
2022-11-15T15:43:00.751Z,12.20
2022-11-15T15:45:28.639Z,12.20
2022-11-15T15:47:55.550Z,12.20
2022-11-15T15:50:26.651Z,12.10
2022-11-15T15:52:55.531Z,12.00
2022-11-15T15:55:22.814Z,12.00
2022-11-15T15:57:50.124Z,12.00
2022-11-15T16:00:18.748Z,12.00
2022-11-15T16:02:45.595Z,12.00
2022-11-15T16:05:13.450Z,11.90
2022-11-15T16:07:41.038Z,11.90
2022-11-15T16:10:28.382Z,11.90
2022-11-15T16:12:56.545Z,11.90
2022-11-15T16:15:25.633Z,11.80
2022-11-15T16:18:00.681Z,11.80
2022-11-15T16:20:43.748Z,11.80
2022-11-15T16:23:12.489Z,11.80
2022-11-15T16:26:03.973Z,11.80
2022-11-15T16:28:33.457Z,11.80
2022-11-15T16:31:20.995Z,11.80
2022-11-15T16:33:47.976Z,11.80
2022-11-15T16:36:29.910Z,11.70
2022-11-15T16:38:57.681Z,11.80
2022-11-15T16:41:24.328Z,11.80
2022-11-15T16:43:51.365Z,11.80
2022-11-15T16:46:20.820Z,11.80
2022-11-15T16:48:48.520Z,11.80
2022-11-15T16:51:16.049Z,11.70
2022-11-15T16:53:43.798Z,11.70
2022-11-15T16:56:22.717Z,11.70
2022-11-15T16:58:49.425Z,11.70
2022-11-15T17:01:46.776Z,11.70
2022-11-15T17:04:14.490Z,11.70
2022-11-15T17:06:42.577Z,11.70
2022-11-15T17:09:20.658Z,11.70
2022-11-15T17:11:47.389Z,11.70
2022-11-15T17:14:14.089Z,11.70
2022-11-15T17:16:42.598Z,11.70
2022-11-15T17:19:17.413Z,11.60
2022-11-15T17:21:45.543Z,11.60
2022-11-15T17:24:12.415Z,11.60
2022-11-15T17:26:40.928Z,11.60
2022-11-15T17:29:08.108Z,11.60
2022-11-15T17:31:38.346Z,11.50
2022-11-15T17:34:06.383Z,11.60
2022-11-15T17:36:33.726Z,11.60
2022-11-15T17:39:00.544Z,11.60
2022-11-15T17:41:28.681Z,11.60
2022-11-15T17:44:00.014Z,11.60
2022-11-15T17:46:28.372Z,11.60
2022-11-15T17:48:56.405Z,11.60
2022-11-15T17:51:24.081Z,11.60
2022-11-15T17:53:51.471Z,11.50
2022-11-15T17:56:20.426Z,11.50
2022-11-15T17:58:55.744Z,11.50
2022-11-15T18:01:23.587Z,11.50
2022-11-15T18:03:50.916Z,11.50
2022-11-15T18:06:19.060Z,11.60
2022-11-15T18:08:47.028Z,11.50
2022-11-15T18:11:16.699Z,11.50
2022-11-15T18:13:50.895Z,11.50
2022-11-15T18:16:21.592Z,11.40
2022-11-15T18:18:48.966Z,11.30
2022-11-15T18:21:18.770Z,11.30
2022-11-15T18:23:46.685Z,11.30
2022-11-15T18:26:15.611Z,11.40
2022-11-15T18:28:47.650Z,11.40
2022-11-15T18:31:18.570Z,11.40
2022-11-15T18:33:45.970Z,11.40
2022-11-15T18:36:15.258Z,11.50
2022-11-15T18:38:42.177Z,11.50
2022-11-15T18:41:14.724Z,11.50
2022-11-15T18:43:41.346Z,11.40
2022-11-15T18:46:11.189Z,11.40
2022-11-15T18:48:39.761Z,11.40
2022-11-15T18:51:17.974Z,11.40
2022-11-15T18:53:45.415Z,11.40
2022-11-15T18:56:17.335Z,11.40
2022-11-15T18:58:49.123Z,11.40
2022-11-15T19:01:21.690Z,11.40
2022-11-15T19:03:50.667Z,11.40
2022-11-15T19:06:20.032Z,11.40
2022-11-15T19:08:49.381Z,11.30
2022-11-15T19:11:18.866Z,11.20
2022-11-15T19:13:46.390Z,11.20
2022-11-15T19:16:15.266Z,11.20
2022-11-15T19:18:42.504Z,11.20
2022-11-15T19:21:14.884Z,11.30
2022-11-15T19:23:43.328Z,11.30
2022-11-15T19:26:15.752Z,11.30
2022-11-15T19:28:43.229Z,11.30
2022-11-15T19:31:15.434Z,11.30
2022-11-15T19:33:43.532Z,11.40
2022-11-15T19:36:20.464Z,11.40
2022-11-15T19:38:47.497Z,11.30
2022-11-15T19:41:17.377Z,11.30
2022-11-15T19:43:44.758Z,11.30
2022-11-15T19:46:12.289Z,11.30
2022-11-15T19:48:39.630Z,11.30
2022-11-15T19:51:10.314Z,11.30
2022-11-15T19:53:37.907Z,11.30
2022-11-15T19:56:07.561Z,11.30
2022-11-15T19:58:34.764Z,11.30
2022-11-15T20:01:04.102Z,11.30
2022-11-15T20:03:32.672Z,11.20
2022-11-15T20:06:23.753Z,11.10
2022-11-15T20:08:50.808Z,11.10
2022-11-15T20:11:18.696Z,11.10
2022-11-15T20:13:45.962Z,11.10
2022-11-15T20:16:17.796Z,11.10
2022-11-15T20:18:44.625Z,11.10
2022-11-15T20:21:11.601Z,11.20
2022-11-15T20:23:39.183Z,11.20
2022-11-15T20:26:07.378Z,11.20
2022-11-15T20:28:35.952Z,11.20
2022-11-15T20:31:02.874Z,11.20
2022-11-15T20:33:29.586Z,11.20
2022-11-15T20:35:56.350Z,11.20
2022-11-15T20:38:23.079Z,11.20
2022-11-15T20:40:53.600Z,11.20
2022-11-15T20:43:22.746Z,11.30
2022-11-15T20:45:50.482Z,11.30
2022-11-15T20:48:17.637Z,11.30
2022-11-15T20:50:45.521Z,11.30
2022-11-15T20:53:17.010Z,11.30
2022-11-15T20:55:48.252Z,11.30
2022-11-15T20:58:16.522Z,11.30
2022-11-15T21:00:44.844Z,11.30
2022-11-15T21:03:13.155Z,11.30
2022-11-15T21:05:42.606Z,11.30
2022-11-15T21:08:10.597Z,11.30
2022-11-15T21:10:56.384Z,11.30
2022-11-15T21:13:23.086Z,11.20
2022-11-15T21:15:49.958Z,11.20
2022-11-15T21:18:16.673Z,11.20
2022-11-15T21:20:43.528Z,11.20
2022-11-15T21:23:10.197Z,11.20
2022-11-15T21:25:36.919Z,11.20
2022-11-15T21:28:03.803Z,11.20
2022-11-15T21:30:31.411Z,11.20
2022-11-15T21:32:58.108Z,11.20
2022-11-15T21:35:24.850Z,11.20
2022-11-15T21:37:56.413Z,11.20
2022-11-15T21:40:24.278Z,11.20
2022-11-15T21:42:51.000Z,11.20
2022-11-15T21:45:17.661Z,11.10
2022-11-15T21:47:46.448Z,11.20
2022-11-15T21:50:13.934Z,11.10
2022-11-15T21:52:41.208Z,11.10
2022-11-15T21:55:08.880Z,11.10
2022-11-15T21:57:35.609Z,11.10
2022-11-15T22:00:20.798Z,11.10
2022-11-15T22:02:47.440Z,11.10
2022-11-15T22:05:14.124Z,11.10
2022-11-15T22:07:40.795Z,11.10
2022-11-15T22:10:07.952Z,11.10
2022-11-15T22:12:34.630Z,11.10
2022-11-15T22:15:01.275Z,11.10
2022-11-15T22:17:47.891Z,11.00
2022-11-15T22:20:37.602Z,11.00
2022-11-15T22:23:02.170Z,11.00
2022-11-15T22:25:29.799Z,11.00
2022-11-15T22:27:56.771Z,11.00
2022-11-15T22:30:24.305Z,11.00
2022-11-15T22:32:50.988Z,11.00
2022-11-15T22:35:17.730Z,11.00
2022-11-15T22:37:44.413Z,11.00
2022-11-15T22:40:11.148Z,11.00
2022-11-15T22:42:37.832Z,11.00
2022-11-15T22:45:04.945Z,10.90
2022-11-15T22:47:31.611Z,10.90
2022-11-15T22:49:58.297Z,11.00
2022-11-15T22:52:25.038Z,10.90
2022-11-15T22:54:51.755Z,11.00
2022-11-15T22:57:18.494Z,11.00
2022-11-15T22:59:45.492Z,11.00
2022-11-15T23:02:12.166Z,10.90
2022-11-15T23:04:38.808Z,10.90
2022-11-15T23:07:05.576Z,10.90
2022-11-15T23:09:32.382Z,11.00
2022-11-15T23:12:17.981Z,11.00
2022-11-15T23:14:44.660Z,10.90
2022-11-15T23:17:11.283Z,10.90
2022-11-15T23:19:37.924Z,10.90
2022-11-15T23:22:23.364Z,10.90
2022-11-15T23:24:51.682Z,10.90
2022-11-15T23:27:20.013Z,10.90
2022-11-15T23:30:06.736Z,10.90
2022-11-15T23:32:51.949Z,10.90
2022-11-15T23:35:18.810Z,10.90
2022-11-15T23:37:45.657Z,10.90
2022-11-15T23:40:12.873Z,10.90
2022-11-15T23:42:39.772Z,10.90
2022-11-15T23:45:07.116Z,10.90
2022-11-15T23:47:35.550Z,10.80
2022-11-15T23:50:02.425Z,10.90
2022-11-15T23:52:29.123Z,10.90
2022-11-15T23:54:55.753Z,10.90
2022-11-15T23:57:23.167Z,10.80
2022-11-15T23:59:49.824Z,10.80
